Time,TemperatureF,DewpointF,PressureIn,WindDirection,WindDirectionDegrees,WindSpeedMPH,WindSpeedGustMPH,Humidity,HourlyPrecipIn,Conditions,Clouds,dailyrainin,SolarRadiationWatts/m^2,SoftwareType,DateUTC
2013-03-20 00:22:00,21.0,6.0,-100.00,SW,232,2.0,5.0,51,0.00,,,0.00,0.000000,,2013-03-20 06:22:00,
2013-03-20 00:32:00,21.0,6.0,-100.00,SW,232,2.0,5.0,51,0.00,,,0.00,0.000000,,2013-03-20 06:32:00,
2013-03-20 00:42:00,21.0,6.0,-100.00,SW,232,2.0,5.0,51,0.00,,,0.00,0.000000,,2013-03-20 06:42:00,
2013-03-20 00:52:00,21.0,6.0,-100.00,SW,232,2.0,5.0,51,0.00,,,0.00,0.000000,,2013-03-20 06:52:00,
2013-03-20 01:22:00,20.0,2.0,-100.00,SSW,192,2.0,5.0,45,0.00,,,0.00,0.000000,,2013-03-20 07:22:00,
2013-03-20 01:32:00,20.0,2.0,-100.00,SSW,192,2.0,5.0,45,0.00,,,0.00,0.000000,,2013-03-20 07:32:00,
2013-03-20 01:42:00,20.0,2.0,-100.00,SSW,192,2.0,5.0,45,0.00,,,0.00,0.000000,,2013-03-20 07:42:00,
2013-03-20 01:52:00,20.0,2.0,-100.00,SSW,192,2.0,5.0,45,0.00,,,0.00,0.000000,,2013-03-20 07:52:00,
2013-03-20 02:22:00,19.0,1.0,-100.00,SSW,192,4.0,7.0,44,0.00,,,0.00,0.000000,,2013-03-20 08:22:00,
2013-03-20 02:32:00,19.0,1.0,-100.00,SSW,192,4.0,7.0,44,0.00,,,0.00,0.000000,,2013-03-20 08:32:00,
2013-03-20 02:42:00,19.0,1.0,-100.00,SSW,192,4.0,7.0,44,0.00,,,0.00,0.000000,,2013-03-20 08:42:00,
2013-03-20 02:52:00,19.0,1.0,-100.00,SSW,192,4.0,7.0,44,0.00,,,0.00,0.000000,,2013-03-20 08:52:00,
2013-03-20 03:22:00,19.0,1.0,-100.00,SSE,158,2.0,5.0,44,0.00,,,0.00,0.000000,,2013-03-20 09:22:00,
2013-03-20 03:33:00,19.0,1.0,-100.00,SSE,158,2.0,5.0,44,0.00,,,0.00,0.000000,,2013-03-20 09:33:00,
2013-03-20 03:43:00,19.0,1.0,-100.00,SSE,158,2.0,5.0,44,0.00,,,0.00,0.000000,,2013-03-20 09:43:00,
2013-03-20 03:52:00,19.0,1.0,-100.00,SSE,158,2.0,5.0,44,0.00,,,0.00,0.000000,,2013-03-20 09:52:00,
2013-03-20 04:23:00,18.0,0.0,-100.00,NNE,25,2.0,3.0,45,0.00,,,0.00,0.000000,,2013-03-20 10:23:00,
2013-03-20 04:32:00,18.0,0.0,-100.00,NNE,25,2.0,3.0,45,0.00,,,0.00,0.000000,,2013-03-20 10:32:00,
2013-03-20 04:42:00,18.0,0.0,-100.00,NNE,25,2.0,3.0,45,0.00,,,0.00,0.000000,,2013-03-20 10:42:00,
2013-03-20 04:52:00,18.0,0.0,-100.00,NNE,25,2.0,3.0,45,0.00,,,0.00,0.000000,,2013-03-20 10:52:00,
2013-03-20 05:22:00,18.0,3.0,-100.00,NE,44,2.0,5.0,50,0.00,,,0.00,0.000000,,2013-03-20 11:22:00,
2013-03-20 05:32:00,18.0,3.0,-100.00,NE,44,2.0,5.0,50,0.00,,,0.00,0.000000,,2013-03-20 11:32:00,
2013-03-20 05:42:00,18.0,3.0,-100.00,NE,44,2.0,5.0,50,0.00,,,0.00,0.000000,,2013-03-20 11:42:00,
2013-03-20 05:52:00,18.0,3.0,-100.00,NE,44,2.0,5.0,50,0.00,,,0.00,0.000000,,2013-03-20 11:52:00,
2013-03-20 06:22:00,18.0,3.0,-100.00,NE,56,3.0,4.0,51,0.00,,,0.00,0.000000,,2013-03-20 12:22:00,
2013-03-20 06:32:00,18.0,3.0,-100.00,NE,56,3.0,4.0,51,0.00,,,0.00,0.000000,,2013-03-20 12:32:00,
2013-03-20 06:42:00,18.0,3.0,-100.00,NE,56,3.0,4.0,51,0.00,,,0.00,0.000000,,2013-03-20 12:42:00,
2013-03-20 06:52:00,18.0,3.0,-100.00,NE,56,3.0,4.0,51,0.00,,,0.00,0.000000,,2013-03-20 12:52:00,
2013-03-20 07:22:00,17.0,6.0,-100.00,North,349,0.0,4.0,62,0.00,,,0.00,1.000000,,2013-03-20 13:22:00,
2013-03-20 07:32:00,17.0,6.0,-100.00,North,349,0.0,4.0,62,0.00,,,0.00,1.000000,,2013-03-20 13:32:00,
2013-03-20 07:42:00,17.0,6.0,-100.00,North,349,0.0,4.0,62,0.00,,,0.00,1.000000,,2013-03-20 13:42:00,
2013-03-20 07:52:00,17.0,6.0,-100.00,North,349,0.0,4.0,62,0.00,,,0.00,1.000000,,2013-03-20 13:52:00,
2013-03-20 08:23:00,21.0,8.0,-100.00,NE,34,2.0,4.0,57,0.00,,,0.00,18.000000,,2013-03-20 14:23:00,
2013-03-20 08:33:00,21.0,8.0,-100.00,NE,34,2.0,4.0,57,0.00,,,0.00,18.000000,,2013-03-20 14:33:00,
2013-03-20 08:42:00,21.0,8.0,-100.00,NE,34,2.0,4.0,57,0.00,,,0.00,18.000000,,2013-03-20 14:42:00,
2013-03-20 08:52:00,21.0,8.0,-100.00,NE,34,2.0,4.0,57,0.00,,,0.00,18.000000,,2013-03-20 14:52:00,
2013-03-20 09:22:00,28.0,12.0,-100.00,SSW,192,3.0,6.0,51,0.00,,,0.00,214.000000,,2013-03-20 15:22:00,
2013-03-20 09:33:00,28.0,12.0,-100.00,SSW,192,3.0,6.0,51,0.00,,,0.00,214.000000,,2013-03-20 15:33:00,
2013-03-20 09:43:00,28.0,12.0,-100.00,SSW,192,3.0,6.0,51,0.00,,,0.00,214.000000,,2013-03-20 15:43:00,
2013-03-20 09:52:00,28.0,12.0,-100.00,SSW,192,3.0,6.0,51,0.00,,,0.00,214.000000,,2013-03-20 15:52:00,
2013-03-20 10:23:00,33.0,12.0,-100.00,South,180,6.0,11.0,42,0.00,,,0.00,455.000000,,2013-03-20 16:23:00,
2013-03-20 10:33:00,33.0,12.0,-100.00,South,180,6.0,11.0,42,0.00,,,0.00,455.000000,,2013-03-20 16:33:00,
2013-03-20 10:43:00,33.0,12.0,-100.00,South,180,6.0,11.0,42,0.00,,,0.00,455.000000,,2013-03-20 16:43:00,
2013-03-20 10:52:00,33.0,12.0,-100.00,South,180,6.0,11.0,42,0.00,,,0.00,455.000000,,2013-03-20 16:52:00,
2013-03-20 11:22:00,36.0,15.0,-100.00,South,181,9.0,15.0,41,0.00,,,0.00,605.000000,,2013-03-20 17:22:00,
2013-03-20 11:32:00,36.0,15.0,-100.00,South,181,9.0,15.0,41,0.00,,,0.00,605.000000,,2013-03-20 17:32:00,
2013-03-20 11:42:00,36.0,15.0,-100.00,South,181,9.0,15.0,41,0.00,,,0.00,605.000000,,2013-03-20 17:42:00,
2013-03-20 11:52:00,36.0,15.0,-100.00,South,181,9.0,15.0,41,0.00,,,0.00,605.000000,,2013-03-20 17:52:00,
2013-03-20 12:22:00,39.0,12.0,-100.00,South,173,8.0,16.0,32,0.00,,,0.00,718.000000,,2013-03-20 18:22:00,
2013-03-20 12:33:00,39.0,12.0,-100.00,South,173,8.0,16.0,32,0.00,,,0.00,718.000000,,2013-03-20 18:33:00,
2013-03-20 12:42:00,39.0,12.0,-100.00,South,173,8.0,16.0,32,0.00,,,0.00,718.000000,,2013-03-20 18:42:00,
2013-03-20 12:52:00,39.0,12.0,-100.00,South,173,8.0,16.0,32,0.00,,,0.00,718.000000,,2013-03-20 18:52:00,
2013-03-20 13:22:00,43.0,16.0,-100.00,SE,124,7.0,15.0,33,0.00,,,0.00,722.000000,,2013-03-20 19:22:00,
2013-03-20 13:32:00,43.0,16.0,-100.00,SE,124,7.0,15.0,33,0.00,,,0.00,722.000000,,2013-03-20 19:32:00,
2013-03-20 13:42:00,43.0,16.0,-100.00,SE,124,7.0,15.0,33,0.00,,,0.00,722.000000,,2013-03-20 19:42:00,
2013-03-20 13:52:00,43.0,16.0,-100.00,SE,124,7.0,15.0,33,0.00,,,0.00,722.000000,,2013-03-20 19:52:00,
2013-03-20 14:22:00,45.0,18.0,-100.00,SE,141,7.0,16.0,33,0.00,,,0.00,614.000000,,2013-03-20 20:22:00,
2013-03-20 14:32:00,45.0,18.0,-100.00,SE,141,7.0,16.0,33,0.00,,,0.00,614.000000,,2013-03-20 20:32:00,
2013-03-20 14:42:00,45.0,18.0,-100.00,SE,141,7.0,16.0,33,0.00,,,0.00,614.000000,,2013-03-20 20:42:00,
2013-03-20 14:52:00,45.0,18.0,-100.00,SE,141,7.0,16.0,33,0.00,,,0.00,614.000000,,2013-03-20 20:52:00,
2013-03-20 15:22:00,45.0,15.0,-100.00,SSE,161,8.0,17.0,29,0.00,,,0.00,320.000000,,2013-03-20 21:22:00,
2013-03-20 15:33:00,45.0,15.0,-100.00,SSE,161,8.0,17.0,29,0.00,,,0.00,320.000000,,2013-03-20 21:33:00,
2013-03-20 15:42:00,45.0,15.0,-100.00,SSE,161,8.0,17.0,29,0.00,,,0.00,320.000000,,2013-03-20 21:42:00,
2013-03-20 15:52:00,45.0,15.0,-100.00,SSE,161,8.0,17.0,29,0.00,,,0.00,320.000000,,2013-03-20 21:52:00,
2013-03-20 16:23:00,49.0,16.0,-100.00,SSE,162,5.0,16.0,27,0.00,,,0.00,496.000000,,2013-03-20 22:23:00,
2013-03-20 16:33:00,49.0,16.0,-100.00,SSE,162,5.0,16.0,27,0.00,,,0.00,496.000000,,2013-03-20 22:33:00,
2013-03-20 16:42:00,49.0,16.0,-100.00,SSE,162,5.0,16.0,27,0.00,,,0.00,496.000000,,2013-03-20 22:42:00,
2013-03-20 16:52:00,49.0,16.0,-100.00,SSE,162,5.0,16.0,27,0.00,,,0.00,496.000000,,2013-03-20 22:52:00,
2013-03-20 17:22:00,47.0,16.0,-100.00,SSE,151,6.0,15.0,29,0.00,,,0.00,214.000000,,2013-03-20 23:22:00,
2013-03-20 17:32:00,47.0,16.0,-100.00,SSE,151,6.0,15.0,29,0.00,,,0.00,214.000000,,2013-03-20 23:32:00,
2013-03-20 17:42:00,47.0,16.0,-100.00,SSE,151,6.0,15.0,29,0.00,,,0.00,214.000000,,2013-03-20 23:42:00,
2013-03-20 17:52:00,47.0,16.0,-100.00,SSE,151,6.0,15.0,29,0.00,,,0.00,214.000000,,2013-03-20 23:52:00,
2013-03-20 18:23:00,46.0,17.0,-100.00,West,267,6.0,13.0,31,0.00,,,0.00,85.000000,,2013-03-21 00:23:00,
2013-03-20 18:33:00,46.0,17.0,-100.00,West,267,6.0,13.0,31,0.00,,,0.00,85.000000,,2013-03-21 00:33:00,
2013-03-20 18:42:00,46.0,17.0,-100.00,West,267,6.0,13.0,31,0.00,,,0.00,85.000000,,2013-03-21 00:42:00,
2013-03-20 18:52:00,46.0,17.0,-100.00,West,267,6.0,13.0,31,0.00,,,0.00,85.000000,,2013-03-21 00:52:00,
2013-03-20 19:22:00,44.0,16.0,-100.00,NW,313,6.0,13.0,32,0.00,,,0.00,32.000000,,2013-03-21 01:22:00,
2013-03-20 19:32:00,44.0,16.0,-100.00,NW,313,6.0,13.0,32,0.00,,,0.00,32.000000,,2013-03-21 01:32:00,
2013-03-20 19:42:00,44.0,16.0,-100.00,NW,313,6.0,13.0,32,0.00,,,0.00,32.000000,,2013-03-21 01:42:00,
2013-03-20 19:52:00,44.0,16.0,-100.00,NW,313,6.0,13.0,32,0.00,,,0.00,32.000000,,2013-03-21 01:52:00,
2013-03-20 20:22:00,42.0,18.0,-100.00,NW,321,7.0,21.0,38,0.00,,,0.00,2.000000,,2013-03-21 02:22:00,
2013-03-20 20:32:00,42.0,18.0,-100.00,NW,321,7.0,21.0,38,0.00,,,0.00,2.000000,,2013-03-21 02:32:00,
2013-03-20 20:42:00,42.0,18.0,-100.00,NW,321,7.0,21.0,38,0.00,,,0.00,2.000000,,2013-03-21 02:42:00,
2013-03-20 20:51:00,42.0,18.0,-100.00,NW,321,7.0,21.0,38,0.00,,,0.00,2.000000,,2013-03-21 02:51:00,
2013-03-20 21:22:00,40.0,19.0,-100.00,NW,321,8.0,18.0,42,0.00,,,0.00,0.000000,,2013-03-21 03:22:00,
2013-03-20 21:33:00,40.0,19.0,-100.00,NW,321,8.0,18.0,42,0.00,,,0.00,0.000000,,2013-03-21 03:33:00,
2013-03-20 21:43:00,40.0,19.0,-100.00,NW,321,8.0,18.0,42,0.00,,,0.00,0.000000,,2013-03-21 03:43:00,
2013-03-20 21:53:00,40.0,19.0,-100.00,NW,321,8.0,18.0,42,0.00,,,0.00,0.000000,,2013-03-21 03:53:00,
2013-03-20 22:23:00,38.0,19.0,-100.00,WNW,286,9.0,17.0,45,0.00,,,0.00,0.000000,,2013-03-21 04:23:00,
2013-03-20 22:33:00,38.0,19.0,-100.00,WNW,286,9.0,17.0,45,0.00,,,0.00,0.000000,,2013-03-21 04:33:00,
2013-03-20 22:43:00,38.0,19.0,-100.00,WNW,286,9.0,17.0,45,0.00,,,0.00,0.000000,,2013-03-21 04:43:00,
2013-03-20 22:53:00,38.0,19.0,-100.00,WNW,286,9.0,17.0,45,0.00,,,0.00,0.000000,,2013-03-21 04:53:00,
2013-03-20 23:22:00,37.0,19.0,-100.00,West,279,8.0,18.0,47,0.00,,,0.00,0.000000,,2013-03-21 05:22:00,
2013-03-20 23:32:00,37.0,19.0,-100.00,West,279,8.0,18.0,47,0.00,,,0.00,0.000000,,2013-03-21 05:32:00,
2013-03-20 23:43:00,37.0,19.0,-100.00,West,279,8.0,18.0,47,0.00,,,0.00,0.000000,,2013-03-21 05:43:00,
2013-03-20 23:52:00,37.0,19.0,-100.00,West,279,8.0,18.0,47,0.00,,,0.00,0.000000,,2013-03-21 05:52:00,